createdAt,value
2019-03-08T00:00:44.987Z,97895.64
2019-03-08T00:01:53.058Z,97897.96
2019-03-08T00:03:01.589Z,97903.29
2019-03-08T00:04:10.032Z,97900.62
2019-03-08T00:05:18.272Z,97912.24
2019-03-08T00:06:26.210Z,97899.92
2019-03-08T00:07:34.358Z,97912.73
2019-03-08T00:08:42.458Z,97920.89
2019-03-08T00:09:50.761Z,97921.05
2019-03-08T00:10:59.504Z,97909.90
2019-03-08T00:12:07.983Z,97911.55
2019-03-08T00:13:16.625Z,97913.84
2019-03-08T00:14:29.925Z,97910.22
2019-03-08T00:15:38.096Z,97923.66
2019-03-08T00:16:46.275Z,97903.02
2019-03-08T00:17:54.485Z,97907.01
2019-03-08T00:19:02.759Z,97912.33
2019-03-08T00:20:12.033Z,97917.50
2019-03-08T00:21:20.516Z,97913.66
2019-03-08T00:22:28.365Z,97920.82
2019-03-08T00:23:36.441Z,97920.14
2019-03-08T00:24:44.463Z,97920.98
2019-03-08T00:25:52.333Z,97912.99
2019-03-08T00:27:00.501Z,97946.77
2019-03-08T00:28:08.308Z,97899.84
2019-03-08T00:29:16.506Z,97904.30
2019-03-08T00:30:24.735Z,97915.44
2019-03-08T00:31:32.741Z,97916.77
2019-03-08T00:32:40.768Z,97926.93
2019-03-08T00:33:48.689Z,97919.44
2019-03-08T00:34:56.767Z,97922.09
2019-03-08T00:36:05.089Z,97916.77
2019-03-08T00:37:13.515Z,97926.75
2019-03-08T00:38:21.964Z,97930.25
2019-03-08T00:39:29.862Z,97928.91
2019-03-08T00:40:37.870Z,97939.91
2019-03-08T00:41:45.915Z,97944.40
2019-03-08T00:42:53.938Z,97952.05
2019-03-08T00:44:02.077Z,97959.20
2019-03-08T00:45:13.809Z,97960.03
2019-03-08T00:46:21.828Z,97959.70
2019-03-08T00:47:29.908Z,97960.53
2019-03-08T00:48:38.103Z,97965.02
2019-03-08T00:49:46.313Z,97962.02
2019-03-08T00:50:54.325Z,97961.19
2019-03-08T00:52:02.367Z,97967.00
2019-03-08T00:53:10.435Z,97965.67
2019-03-08T00:54:18.759Z,97960.02
2019-03-08T00:55:27.419Z,97957.34
2019-03-08T00:56:35.619Z,97956.14
2019-03-08T00:57:44.017Z,97961.13
2019-03-08T00:58:52.430Z,97962.45
2019-03-08T01:00:00.767Z,97970.61
2019-03-08T01:01:09.180Z,97971.94
2019-03-08T01:02:17.416Z,97977.60
2019-03-08T01:03:25.822Z,97981.41
2019-03-08T01:04:33.889Z,97980.42
2019-03-08T01:05:42.344Z,97987.08
2019-03-08T01:06:50.482Z,97987.57
2019-03-08T01:07:58.740Z,97984.57
2019-03-08T01:09:09.577Z,97988.22
2019-03-08T01:10:24.598Z,97991.34
2019-03-08T01:11:32.591Z,97992.00
2019-03-08T01:12:40.983Z,97988.66
2019-03-08T01:13:49.022Z,97988.66
2019-03-08T01:14:57.360Z,97989.16
2019-03-08T01:16:05.388Z,97991.97
2019-03-08T01:17:13.381Z,97991.27
2019-03-08T01:18:21.526Z,97988.11
2019-03-08T01:19:29.560Z,97995.41
2019-03-08T01:20:37.754Z,97985.76
2019-03-08T01:21:45.823Z,97995.72
2019-03-08T01:22:54.259Z,97994.55
2019-03-08T01:24:02.376Z,97990.34
2019-03-08T01:25:11.241Z,98001.48
2019-03-08T01:26:19.885Z,97995.63
2019-03-08T01:27:28.161Z,97988.14
2019-03-08T01:28:36.957Z,97994.42
2019-03-08T01:29:47.366Z,97991.92
2019-03-08T01:30:55.650Z,97995.08
2019-03-08T01:32:05.474Z,97997.05
2019-03-08T01:33:14.022Z,97994.89
2019-03-08T01:34:22.331Z,97999.87
2019-03-08T01:35:30.722Z,97998.66
2019-03-08T01:36:38.701Z,97997.98
2019-03-08T01:37:46.651Z,97998.47
2019-03-08T01:38:54.781Z,97998.13
2019-03-08T01:40:03.087Z,98002.63
2019-03-08T01:41:11.559Z,98002.77
2019-03-08T01:42:19.790Z,98006.77
2019-03-08T01:43:27.923Z,98006.55
2019-03-08T01:44:36.085Z,98015.86
2019-03-08T01:45:44.100Z,98013.69
2019-03-08T01:46:52.482Z,98010.84
2019-03-08T01:48:00.783Z,98015.83
2019-03-08T01:49:09.396Z,98010.16
2019-03-08T01:50:17.594Z,98007.50
2019-03-08T01:51:26.262Z,98008.95
2019-03-08T01:52:34.356Z,98008.95
2019-03-08T01:53:42.695Z,98014.27
2019-03-08T01:54:51.101Z,98011.61
2019-03-08T01:55:59.277Z,98009.94
2019-03-08T01:57:07.468Z,98012.60
2019-03-08T01:58:15.892Z,98013.93
2019-03-08T01:59:24.479Z,98021.76
2019-03-08T02:00:32.725Z,98019.59
2019-03-08T02:01:41.236Z,98016.94
2019-03-08T02:02:49.921Z,98024.08
2019-03-08T02:03:58.341Z,98015.75
2019-03-08T02:05:08.418Z,98015.75
2019-03-08T02:06:16.695Z,98011.42
2019-03-08T02:07:25.297Z,98007.44
2019-03-08T02:08:33.674Z,98006.59
2019-03-08T02:09:41.964Z,98005.27
2019-03-08T02:10:50.260Z,98004.43
2019-03-08T02:11:58.718Z,98001.92
2019-03-08T02:13:07.219Z,97997.09
2019-03-08T02:14:15.627Z,98002.27
2019-03-08T02:15:24.323Z,98002.27
2019-03-08T02:16:32.631Z,97999.61
2019-03-08T02:17:41.039Z,98007.25
2019-03-08T02:18:49.219Z,98010.59
2019-03-08T02:19:58.057Z,98003.25
2019-03-08T02:21:07.330Z,98011.73
2019-03-08T02:22:16.212Z,98002.76
2019-03-08T02:23:24.476Z,98009.41
2019-03-08T02:24:32.847Z,98004.58
2019-03-08T02:25:41.504Z,98003.59
2019-03-08T02:26:49.704Z,98001.09
2019-03-08T02:27:58.079Z,98011.23
2019-03-08T02:29:06.721Z,98008.23
2019-03-08T02:30:19.729Z,98007.36
2019-03-08T02:31:27.933Z,98005.57
2019-03-08T02:32:36.269Z,98004.36
2019-03-08T02:33:44.529Z,98006.19
2019-03-08T02:34:52.835Z,97996.87
2019-03-08T02:36:01.136Z,97999.53
2019-03-08T02:37:09.657Z,97996.20
2019-03-08T02:38:17.995Z,97995.70
2019-03-08T02:39:26.353Z,97998.02
2019-03-08T02:40:36.544Z,97984.38
2019-03-08T02:41:44.564Z,97986.05
2019-03-08T02:42:53.198Z,97991.37
2019-03-08T02:44:01.288Z,97996.34
2019-03-08T02:45:09.989Z,97999.84
2019-03-08T02:46:18.060Z,97997.67
2019-03-08T02:47:25.962Z,98001.17
2019-03-08T02:48:33.935Z,97999.62
2019-03-08T02:49:41.887Z,97996.50
2019-03-08T02:50:50.045Z,98000.00
2019-03-08T02:51:58.185Z,97999.84
2019-03-08T02:53:06.790Z,97996.84
2019-03-08T02:54:15.149Z,97990.69
2019-03-08T02:55:23.590Z,97999.50
2019-03-08T02:56:32.521Z,98000.83
2019-03-08T02:57:40.806Z,98005.66
2019-03-08T02:58:49.328Z,98010.14
2019-03-08T02:59:57.474Z,98015.31
2019-03-08T03:01:06.008Z,98019.30
2019-03-08T03:02:14.277Z,98020.13
2019-03-08T03:03:22.397Z,98017.97
2019-03-08T03:04:30.826Z,98011.81
2019-03-08T03:05:39.439Z,98016.14
2019-03-08T03:06:47.533Z,98012.50
2019-03-08T03:07:55.648Z,98017.81
2019-03-08T03:09:03.913Z,98016.83
2019-03-08T03:10:14.230Z,98022.49
2019-03-08T03:11:22.261Z,98022.38
2019-03-08T03:12:30.439Z,98022.38
2019-03-08T03:13:38.777Z,98017.88
2019-03-08T03:14:46.976Z,98023.20
2019-03-08T03:15:55.126Z,98023.55
2019-03-08T03:17:03.254Z,98020.05
2019-03-08T03:18:12.588Z,98025.56
2019-03-08T03:19:21.053Z,98023.73
2019-03-08T03:20:29.290Z,98017.58
2019-03-08T03:21:37.334Z,98022.75
2019-03-08T03:22:46.006Z,98019.75
2019-03-08T03:23:54.617Z,98024.91
2019-03-08T03:25:02.622Z,98026.73
2019-03-08T03:26:10.901Z,98020.42
2019-03-08T03:27:19.228Z,98027.45
2019-03-08T03:28:27.529Z,98019.09
2019-03-08T03:29:36.075Z,98014.27
2019-03-08T03:30:44.431Z,98012.82
2019-03-08T03:31:52.672Z,98011.98
2019-03-08T03:33:01.067Z,98011.12
2019-03-08T03:34:09.639Z,98013.31
2019-03-08T03:35:17.992Z,98007.99
2019-03-08T03:36:26.354Z,98012.45
2019-03-08T03:37:34.650Z,98015.98
2019-03-08T03:38:43.170Z,98021.14
2019-03-08T03:39:51.674Z,98023.31
2019-03-08T03:40:59.964Z,98025.97
2019-03-08T03:42:08.733Z,98028.29
2019-03-08T03:43:16.965Z,98029.63
2019-03-08T03:44:25.224Z,98029.96
2019-03-08T03:45:34.231Z,98035.28
2019-03-08T03:46:42.603Z,98026.95
2019-03-08T03:47:51.135Z,98034.59
2019-03-08T03:49:00.023Z,98033.61
2019-03-08T03:50:13.417Z,98036.27
2019-03-08T03:51:21.596Z,98035.28
2019-03-08T03:52:29.856Z,98037.60
2019-03-08T03:53:38.349Z,98036.77
2019-03-08T03:54:46.450Z,98034.94
2019-03-08T03:55:54.896Z,98026.13
2019-03-08T03:57:04.886Z,98032.63
2019-03-08T03:58:13.087Z,98029.47
2019-03-08T03:59:21.203Z,98028.97
2019-03-08T04:00:29.469Z,98024.30
2019-03-08T04:01:39.337Z,98034.94
2019-03-08T04:02:47.419Z,98028.63
2019-03-08T04:03:55.621Z,98031.45
2019-03-08T04:05:03.483Z,98032.78
2019-03-08T04:06:11.914Z,98026.13
2019-03-08T04:07:19.990Z,98027.08
2019-03-08T04:08:28.131Z,98023.24
2019-03-08T04:09:36.257Z,98028.06
2019-03-08T04:10:44.468Z,98029.89
2019-03-08T04:11:53.128Z,98037.38
2019-03-08T04:13:01.521Z,98029.89
2019-03-08T04:14:10.242Z,98033.88
2019-03-08T04:15:20.492Z,98036.70
2019-03-08T04:16:28.895Z,98045.17
2019-03-08T04:17:37.156Z,98043.50
2019-03-08T04:18:45.289Z,98044.48
2019-03-08T04:19:53.885Z,98042.66
2019-03-08T04:21:02.242Z,98040.62
2019-03-08T04:22:10.605Z,98038.83
2019-03-08T04:23:19.010Z,98041.95
2019-03-08T04:24:27.290Z,98044.98
2019-03-08T04:25:35.616Z,98043.66
2019-03-08T04:26:43.992Z,98040.84
2019-03-08T04:27:52.385Z,98044.19
2019-03-08T04:29:01.030Z,98050.19
2019-03-08T04:30:18.927Z,98049.02
2019-03-08T04:31:26.980Z,98051.02
2019-03-08T04:32:34.897Z,98050.06
2019-03-08T04:33:43.226Z,98040.27
2019-03-08T04:34:51.535Z,98048.59
2019-03-08T04:35:59.729Z,98053.41
2019-03-08T04:37:09.155Z,98047.26
2019-03-08T04:38:17.621Z,98047.75
2019-03-08T04:39:25.910Z,98041.59
2019-03-08T04:40:33.974Z,98043.53
2019-03-08T04:41:42.055Z,98035.22
2019-03-08T04:42:50.479Z,98043.53
2019-03-08T04:43:58.557Z,98040.04
2019-03-08T04:45:10.765Z,98043.20
2019-03-08T04:46:19.258Z,98037.53
2019-03-08T04:47:27.306Z,98039.02
2019-03-08T04:48:35.229Z,98034.69
2019-03-08T04:49:43.487Z,98032.17
2019-03-08T04:50:51.595Z,98029.86
2019-03-08T04:51:59.688Z,98033.50
2019-03-08T04:53:07.598Z,98029.02
2019-03-08T04:54:15.852Z,98026.36
2019-03-08T04:55:23.816Z,98037.00
2019-03-08T04:56:31.822Z,98037.34
2019-03-08T04:57:40.196Z,98046.66
2019-03-08T04:58:48.140Z,98045.81
2019-03-08T04:59:56.257Z,98034.95
2019-03-08T05:01:04.612Z,98040.77
2019-03-08T05:02:12.859Z,98043.09
2019-03-08T05:03:21.364Z,98041.91
2019-03-08T05:04:29.768Z,98034.08
2019-03-08T05:05:38.045Z,98032.41
2019-03-08T05:06:46.478Z,98039.52
2019-03-08T05:07:54.855Z,98032.53
2019-03-08T05:09:04.119Z,98029.03
2019-03-08T05:10:20.320Z,98031.01
2019-03-08T05:11:28.439Z,98024.36
2019-03-08T05:12:36.645Z,98025.34
2019-03-08T05:13:45.102Z,98020.67
2019-03-08T05:14:53.053Z,98028.50
2019-03-08T05:16:00.836Z,98030.66
2019-03-08T05:17:09.145Z,98028.50
2019-03-08T05:18:17.182Z,98027.66
2019-03-08T05:19:25.294Z,98026.45
2019-03-08T05:20:33.563Z,98037.47
2019-03-08T05:21:41.748Z,98040.96
2019-03-08T05:22:49.852Z,98041.95
2019-03-08T05:23:57.876Z,98040.62
2019-03-08T05:25:09.459Z,98037.09
2019-03-08T05:26:17.287Z,98042.78
2019-03-08T05:27:25.641Z,98033.48
2019-03-08T05:28:34.004Z,98037.47
2019-03-08T05:29:42.256Z,98040.96
2019-03-08T05:30:50.546Z,98030.81
2019-03-08T05:31:58.628Z,98029.48
2019-03-08T05:33:06.775Z,98031.16
2019-03-08T05:34:15.296Z,98032.98
2019-03-08T05:35:23.582Z,98028.84
2019-03-08T05:36:32.054Z,98030.86
2019-03-08T05:37:40.256Z,98027.85
2019-03-08T05:38:49.042Z,98027.36
2019-03-08T05:39:57.789Z,98025.53
2019-03-08T05:41:06.635Z,98026.03
2019-03-08T05:42:15.276Z,98020.37
2019-03-08T05:43:23.379Z,98023.38
2019-03-08T05:44:31.500Z,98023.03
2019-03-08T05:45:39.836Z,98027.02
2019-03-08T05:46:48.265Z,98032.83
2019-03-08T05:47:56.490Z,98035.48
2019-03-08T05:49:04.792Z,98030.66
2019-03-08T05:50:13.821Z,98031.66
2019-03-08T05:51:22.126Z,98032.64
2019-03-08T05:52:30.474Z,98034.44
2019-03-08T05:53:39.014Z,98039.29
2019-03-08T05:54:47.644Z,98037.09
2019-03-08T05:55:55.979Z,98033.59
2019-03-08T05:57:04.160Z,98038.58
2019-03-08T05:58:12.547Z,98043.05
2019-03-08T05:59:20.549Z,98031.73
2019-03-08T06:00:33.521Z,98049.52
2019-03-08T06:01:40.233Z,98038.03
2019-03-08T06:02:48.902Z,98033.21
2019-03-08T06:03:57.180Z,98034.39
2019-03-08T06:05:07.759Z,98042.86
2019-03-08T06:06:16.523Z,98043.20
2019-03-08T06:07:25.050Z,98026.91
2019-03-08T06:08:33.734Z,98034.88
2019-03-08T06:09:42.220Z,98031.39
2019-03-08T06:10:50.743Z,98035.03
2019-03-08T06:11:59.426Z,98028.88
2019-03-08T06:13:08.696Z,98032.87
2019-03-08T06:14:16.746Z,98025.84
2019-03-08T06:15:25.217Z,98032.38
2019-03-08T06:16:33.229Z,98034.69
2019-03-08T06:17:41.391Z,98033.83
2019-03-08T06:18:49.633Z,98047.13
2019-03-08T06:19:58.033Z,98041.69
2019-03-08T06:21:06.438Z,98027.89
2019-03-08T06:22:14.648Z,98025.08
2019-03-08T06:23:22.960Z,98033.90
2019-03-08T06:24:31.056Z,98032.91
2019-03-08T06:25:38.768Z,98036.41
2019-03-08T06:26:46.937Z,98040.89
2019-03-08T06:27:55.357Z,98044.38
2019-03-08T06:29:03.336Z,98046.89
2019-03-08T06:30:13.611Z,98041.08
2019-03-08T06:31:21.935Z,98047.73
2019-03-08T06:32:29.733Z,98040.24
2019-03-08T06:33:37.896Z,98050.39
2019-03-08T06:34:46.056Z,98050.54
2019-03-08T06:35:54.206Z,98065.02
2019-03-08T06:37:02.658Z,98058.25
2019-03-08T06:38:11.064Z,98058.59
2019-03-08T06:39:19.125Z,98076.38
2019-03-08T06:40:27.090Z,98069.73
2019-03-08T06:41:35.297Z,98063.91
2019-03-08T06:42:43.619Z,98054.11
2019-03-08T06:43:51.971Z,98063.61
2019-03-08T06:45:00.376Z,98060.45
2019-03-08T06:46:08.544Z,98054.80
2019-03-08T06:47:16.750Z,98051.98
2019-03-08T06:48:24.674Z,98058.52
2019-03-08T06:49:32.700Z,98046.89
2019-03-08T06:50:40.957Z,98049.55
2019-03-08T06:51:49.054Z,98053.39
2019-03-08T06:52:57.153Z,98057.72
2019-03-08T06:54:05.477Z,98030.12
2019-03-08T06:55:15.449Z,98056.58
2019-03-08T06:56:23.523Z,98063.72
2019-03-08T06:57:31.796Z,98057.56
2019-03-08T06:58:47.884Z,98048.59
2019-03-08T06:59:57.718Z,98038.83
2019-03-08T07:01:07.143Z,98061.44
2019-03-08T07:02:16.104Z,98057.30
2019-03-08T07:03:24.237Z,98063.80
2019-03-08T07:04:32.356Z,98056.16
2019-03-08T07:05:40.967Z,98071.13
2019-03-08T07:06:49.374Z,98048.02
2019-03-08T07:07:57.740Z,98075.34
2019-03-08T07:09:07.735Z,98084.16
2019-03-08T07:10:15.719Z,98072.87
2019-03-08T07:11:23.985Z,98053.76
2019-03-08T07:12:32.201Z,98073.71
2019-03-08T07:13:40.470Z,98048.92
2019-03-08T07:14:48.905Z,98052.27
2019-03-08T07:15:56.912Z,98050.79
2019-03-08T07:17:04.882Z,98041.02
2019-03-08T07:18:13.197Z,98054.17
2019-03-08T07:19:21.699Z,98050.67
2019-03-08T07:20:37.467Z,98052.34
2019-03-08T07:21:50.027Z,98047.36
2019-03-08T07:23:06.805Z,98058.69
2019-03-08T07:24:16.795Z,98058.05
2019-03-08T07:25:51.214Z,98062.41
2019-03-08T07:26:56.575Z,98063.36
2019-03-08T07:28:18.478Z,98063.24
2019-03-08T07:29:31.367Z,98059.44
2019-03-08T07:30:44.246Z,98063.43
2019-03-08T07:31:53.921Z,98054.80
2019-03-08T07:33:03.776Z,98063.63
2019-03-08T07:34:16.355Z,98063.13
2019-03-08T07:35:24.249Z,98062.16
2019-03-08T07:36:44.660Z,98056.47
2019-03-08T07:38:01.557Z,98061.67
2019-03-08T07:39:35.211Z,98068.82
2019-03-08T07:40:44.783Z,98061.18
2019-03-08T07:41:54.437Z,98077.98
2019-03-08T07:43:04.125Z,98055.86
2019-03-08T07:44:14.119Z,98055.02
2019-03-08T07:45:27.019Z,98060.19
2019-03-08T07:46:54.949Z,98055.86
2019-03-08T07:48:07.448Z,98061.18
2019-03-08T07:49:28.879Z,98076.50
2019-03-08T07:50:54.507Z,98076.84
2019-03-08T07:52:04.880Z,98069.54
2019-03-08T07:53:13.052Z,98073.41
2019-03-08T07:54:25.866Z,98082.23
2019-03-08T07:55:35.445Z,98082.08
2019-03-08T07:56:45.067Z,98075.08
2019-03-08T07:58:00.563Z,98084.09
2019-03-08T07:59:10.446Z,98071.63
2019-03-08T08:00:36.492Z,98057.47
2019-03-08T08:01:46.142Z,98071.95
2019-03-08T08:03:05.197Z,98079.95
2019-03-08T08:04:22.546Z,98083.94
2019-03-08T08:05:57.381Z,98071.00
2019-03-08T08:06:59.910Z,98078.00
2019-03-08T08:08:09.791Z,98081.00
2019-03-08T08:09:22.301Z,98075.18
2019-03-08T08:10:32.128Z,98093.52
2019-03-08T08:11:52.480Z,98082.36
2019-03-08T08:13:02.313Z,98088.90
2019-03-08T08:14:10.259Z,98085.59
2019-03-08T08:15:29.022Z,98085.77
2019-03-08T08:16:55.068Z,98082.95
2019-03-08T08:18:17.338Z,98091.50
2019-03-08T08:19:45.094Z,98092.90
2019-03-08T08:21:03.543Z,98101.57
2019-03-08T08:22:13.990Z,98100.08
2019-03-08T08:23:34.306Z,98098.75
2019-03-08T08:24:38.881Z,98100.42
2019-03-08T08:25:48.571Z,98101.26
2019-03-08T08:27:10.349Z,98105.25
2019-03-08T08:28:20.274Z,98087.66
2019-03-08T08:29:34.699Z,98089.00
2019-03-08T08:30:55.776Z,98087.36
2019-03-08T08:32:23.607Z,98091.69
2019-03-08T08:33:33.350Z,98090.36
2019-03-08T08:34:43.166Z,98101.72
2019-03-08T08:35:59.078Z,98098.56
2019-03-08T08:37:20.932Z,98098.75
2019-03-08T08:38:30.543Z,98092.09
2019-03-08T08:39:55.573Z,98094.44
2019-03-08T08:41:05.197Z,98100.61
2019-03-08T08:42:18.918Z,98092.83
2019-03-08T08:43:26.598Z,98090.19
2019-03-08T08:44:36.308Z,98103.11
2019-03-08T08:46:00.990Z,98098.17
2019-03-08T08:47:19.499Z,98094.42
2019-03-08T08:48:45.251Z,98091.50
2019-03-08T08:49:55.940Z,98077.53
2019-03-08T08:51:04.953Z,98078.97
2019-03-08T08:52:17.372Z,98092.81
2019-03-08T08:53:43.305Z,98076.38
2019-03-08T08:54:51.382Z,98065.39
2019-03-08T08:55:59.138Z,98075.40
2019-03-08T08:57:17.361Z,98069.10
2019-03-08T08:58:29.986Z,98075.27
2019-03-08T08:59:43.568Z,98081.09
2019-03-08T09:00:57.426Z,98068.11
2019-03-08T09:02:19.446Z,98066.27
2019-03-08T09:03:31.690Z,98074.27
2019-03-08T09:05:01.108Z,98066.77
2019-03-08T09:06:11.169Z,98076.10
2019-03-08T09:07:36.755Z,98081.94
2019-03-08T09:08:47.427Z,98078.90
2019-03-08T09:10:04.417Z,98073.56
2019-03-08T09:11:14.052Z,98075.40
2019-03-08T09:12:24.868Z,98076.94
2019-03-08T09:13:39.952Z,98076.44
2019-03-08T09:14:47.665Z,98084.44
2019-03-08T09:16:12.296Z,98055.11
2019-03-08T09:17:22.148Z,98064.45
2019-03-08T09:18:31.584Z,98077.78
2019-03-08T09:19:44.208Z,98068.28
2019-03-08T09:21:02.873Z,98073.45
2019-03-08T09:22:24.877Z,98082.45
2019-03-08T09:23:50.771Z,98097.45
2019-03-08T09:25:09.166Z,98068.33
2019-03-08T09:26:24.530Z,98088.80
2019-03-08T09:27:36.757Z,98072.51
2019-03-08T09:28:50.490Z,98100.01
2019-03-08T09:30:05.854Z,98081.86
2019-03-08T09:31:25.185Z,98072.56
2019-03-08T09:32:34.762Z,98057.94
2019-03-08T09:33:47.172Z,98068.62
2019-03-08T09:35:06.104Z,98074.17
2019-03-08T09:36:31.992Z,98073.68
2019-03-08T09:37:53.584Z,98077.39
2019-03-08T09:39:10.577Z,98072.06
2019-03-08T09:40:19.037Z,98069.10
2019-03-08T09:41:28.685Z,98072.10
2019-03-08T09:42:44.483Z,98077.11
2019-03-08T09:44:06.175Z,98074.62
2019-03-08T09:45:16.009Z,98077.49
2019-03-08T09:46:35.924Z,98078.16
2019-03-08T09:48:02.029Z,98071.20
2019-03-08T09:49:18.428Z,98066.03
2019-03-08T09:50:34.265Z,98081.72
2019-03-08T09:51:43.890Z,98075.88
2019-03-08T09:52:53.663Z,98072.24
2019-03-08T09:54:06.434Z,98069.24
2019-03-08T09:55:15.983Z,98078.25
2019-03-08T09:56:23.979Z,98079.42
2019-03-08T09:57:36.275Z,98066.58
2019-03-08T09:58:49.357Z,98083.63
2019-03-08T10:00:04.908Z,98060.31
2019-03-08T10:01:21.258Z,98060.98
2019-03-08T10:02:30.835Z,98079.03
2019-03-08T10:03:52.889Z,98072.69
2019-03-08T10:05:02.574Z,98073.03
2019-03-08T10:06:12.382Z,98085.41
2019-03-08T10:07:24.818Z,98096.59
2019-03-08T10:08:40.807Z,98088.42
2019-03-08T10:09:50.468Z,98072.77
2019-03-08T10:11:12.146Z,98091.45
2019-03-08T10:12:22.257Z,98088.48
2019-03-08T10:13:34.721Z,98082.48
2019-03-08T10:14:48.500Z,98090.52
2019-03-08T10:15:57.849Z,98082.88
2019-03-08T10:17:10.079Z,98084.38
2019-03-08T10:18:19.614Z,98089.89
2019-03-08T10:19:44.511Z,98093.59
2019-03-08T10:21:10.324Z,98096.27
2019-03-08T10:22:22.791Z,98091.11
2019-03-08T10:23:38.323Z,98096.28
2019-03-08T10:25:03.345Z,98091.80
2019-03-08T10:26:20.199Z,98095.97
2019-03-08T10:27:45.907Z,98090.33
2019-03-08T10:28:55.834Z,98103.85
2019-03-08T10:30:05.529Z,98118.75
2019-03-08T10:31:13.405Z,98098.70
2019-03-08T10:32:37.383Z,98100.72
2019-03-08T10:33:46.761Z,98108.91
2019-03-08T10:35:23.097Z,98117.44
2019-03-08T10:36:27.019Z,98092.39
2019-03-08T10:37:41.942Z,98098.26
2019-03-08T10:38:54.328Z,98098.78
2019-03-08T10:40:05.690Z,98102.17
2019-03-08T10:41:15.496Z,98091.45
2019-03-08T10:42:23.270Z,98094.98
2019-03-08T10:43:32.945Z,98100.48
2019-03-08T10:44:55.614Z,98084.45
2019-03-08T10:46:15.916Z,98089.62
2019-03-08T10:47:34.328Z,98091.30
2019-03-08T10:48:50.235Z,98093.81
2019-03-08T10:50:05.916Z,98065.37
2019-03-08T10:51:21.642Z,98087.13
2019-03-08T10:52:34.075Z,98079.73
2019-03-08T10:53:46.484Z,98059.67
2019-03-08T10:54:58.485Z,98069.70
2019-03-08T10:56:21.386Z,98064.68
2019-03-08T10:57:31.163Z,98062.63
2019-03-08T10:58:46.462Z,98074.02
2019-03-08T11:00:04.855Z,98067.28
2019-03-08T11:01:32.787Z,98074.46
2019-03-08T11:02:45.065Z,98067.26
2019-03-08T11:03:52.791Z,98056.55
2019-03-08T11:05:04.697Z,98057.02
2019-03-08T11:06:23.087Z,98067.91
2019-03-08T11:07:38.724Z,98068.06
2019-03-08T11:08:52.480Z,98067.91
2019-03-08T11:10:17.982Z,98065.23
2019-03-08T11:11:30.925Z,98066.57
2019-03-08T11:12:43.547Z,98062.91
2019-03-08T11:13:51.714Z,98042.82
2019-03-08T11:15:07.740Z,98064.08
2019-03-08T11:16:32.393Z,98050.50
2019-03-08T11:17:51.173Z,98026.89
2019-03-08T11:19:08.531Z,98040.47
2019-03-08T11:20:25.214Z,98070.59
2019-03-08T11:21:51.336Z,98049.16
2019-03-08T11:23:16.215Z,98063.75
2019-03-08T11:24:25.946Z,98058.03
2019-03-08T11:25:35.295Z,98052.45
2019-03-08T11:26:54.244Z,98062.66
2019-03-08T11:28:08.055Z,98067.18
2019-03-08T11:29:18.198Z,98059.97
2019-03-08T11:30:30.733Z,98050.92
2019-03-08T11:31:40.977Z,98055.08
2019-03-08T11:32:56.253Z,98049.03
2019-03-08T11:34:08.917Z,98056.42
2019-03-08T11:35:24.459Z,98044.86
2019-03-08T11:36:37.570Z,98050.22
2019-03-08T11:37:47.094Z,98060.44
2019-03-08T11:38:56.684Z,98056.38
2019-03-08T11:40:24.423Z,98056.38
2019-03-08T11:41:34.119Z,98054.66
2019-03-08T11:42:46.897Z,98071.39
2019-03-08T11:43:56.587Z,98065.64
2019-03-08T11:45:12.688Z,98065.74
2019-03-08T11:46:24.972Z,98049.96
2019-03-08T11:47:50.687Z,98071.23
2019-03-08T11:49:16.418Z,98058.50
2019-03-08T11:50:27.218Z,98048.75
2019-03-08T11:51:50.221Z,98063.83
2019-03-08T11:53:02.396Z,98049.26
2019-03-08T11:54:14.315Z,98076.91
2019-03-08T11:55:31.083Z,98073.08
2019-03-08T11:56:56.955Z,98069.05
2019-03-08T11:58:12.290Z,98053.28
2019-03-08T11:59:24.774Z,98063.50
2019-03-08T12:00:34.491Z,98058.64
2019-03-08T12:02:00.391Z,98069.36
2019-03-08T12:03:16.122Z,98058.13
2019-03-08T12:04:29.685Z,98062.42
2019-03-08T12:05:57.495Z,98060.09
2019-03-08T12:07:07.096Z,98068.61
2019-03-08T12:08:32.897Z,98058.69
2019-03-08T12:09:48.420Z,98069.22
2019-03-08T12:11:10.899Z,98059.18
2019-03-08T12:12:20.479Z,98062.70
2019-03-08T12:13:32.827Z,98068.70
2019-03-08T12:14:58.516Z,98050.60
2019-03-08T12:16:08.165Z,98069.02
2019-03-08T12:17:31.607Z,98063.30
2019-03-08T12:18:43.938Z,98038.08
2019-03-08T12:20:02.845Z,98059.85
2019-03-08T12:21:18.474Z,98068.36
2019-03-08T12:22:31.347Z,98071.72
2019-03-08T12:23:43.778Z,98069.69
2019-03-08T12:25:06.604Z,98003.72
2019-03-08T12:26:22.070Z,98061.61
2019-03-08T12:27:37.351Z,98054.06
2019-03-08T12:28:59.159Z,98064.30
2019-03-08T12:30:13.570Z,98045.50
2019-03-08T12:31:28.935Z,98060.21
2019-03-08T12:32:39.753Z,98056.99
2019-03-08T12:33:53.631Z,98054.95
2019-03-08T12:35:12.121Z,98058.66
2019-03-08T12:36:23.177Z,98050.63
2019-03-08T12:37:35.302Z,98044.42
2019-03-08T12:39:01.022Z,98070.13
2019-03-08T12:40:25.364Z,98063.09
2019-03-08T12:41:51.212Z,98051.33
2019-03-08T12:43:07.554Z,98059.17
2019-03-08T12:44:13.579Z,98047.70
2019-03-08T12:45:21.433Z,98064.45
2019-03-08T12:46:30.883Z,98051.16
2019-03-08T12:47:55.821Z,98060.53
2019-03-08T12:49:11.148Z,98061.81
2019-03-08T12:50:26.782Z,98096.06
2019-03-08T12:51:36.450Z,98047.39
2019-03-08T12:52:48.807Z,98066.23
2019-03-08T12:54:14.414Z,98060.40
2019-03-08T12:55:22.467Z,98072.00
2019-03-08T12:56:30.380Z,98067.67
2019-03-08T12:57:39.961Z,98071.25
2019-03-08T12:58:49.627Z,98088.73
2019-03-08T12:59:59.358Z,98040.59
2019-03-08T13:01:14.976Z,98064.61
2019-03-08T13:02:24.820Z,98064.11
2019-03-08T13:03:50.321Z,98057.20
2019-03-08T13:05:16.185Z,98073.31
2019-03-08T13:06:42.581Z,98070.13
2019-03-08T13:07:58.508Z,98081.86
2019-03-08T13:09:27.736Z,98077.12
2019-03-08T13:10:35.631Z,98073.94
2019-03-08T13:11:43.818Z,98080.97
2019-03-08T13:12:51.516Z,98095.55
2019-03-08T13:13:59.675Z,98080.11
2019-03-08T13:15:16.278Z,98080.11
2019-03-08T13:16:24.099Z,98109.66
2019-03-08T13:17:32.501Z,98086.83
2019-03-08T13:18:40.490Z,98089.32
2019-03-08T13:19:48.847Z,98080.89
2019-03-08T13:20:56.789Z,98088.95
2019-03-08T13:22:04.910Z,98092.14
2019-03-08T13:23:13.089Z,98090.18
2019-03-08T13:24:21.195Z,98109.38
2019-03-08T13:25:29.296Z,98100.88
2019-03-08T13:26:37.015Z,98107.47
2019-03-08T13:27:45.090Z,98100.81
2019-03-08T13:28:53.266Z,98098.59
2019-03-08T13:30:01.572Z,98131.31
2019-03-08T13:31:09.493Z,98133.86
2019-03-08T13:32:17.481Z,98110.87
2019-03-08T13:33:25.623Z,98124.48
2019-03-08T13:34:33.789Z,98125.69
2019-03-08T13:35:41.778Z,98142.81
2019-03-08T13:36:49.838Z,98140.33
2019-03-08T13:37:57.937Z,98121.23
2019-03-08T13:39:08.095Z,98125.13
2019-03-08T13:40:17.570Z,98126.15
2019-03-08T13:41:25.660Z,98135.03
2019-03-08T13:42:33.930Z,98129.86
2019-03-08T13:43:41.865Z,98160.89
2019-03-08T13:44:49.654Z,98144.67
2019-03-08T13:45:57.612Z,98144.02
2019-03-08T13:47:05.702Z,98140.51
2019-03-08T13:48:14.543Z,98144.71
2019-03-08T13:49:22.579Z,98146.05
2019-03-08T13:50:30.618Z,98144.39
2019-03-08T13:51:38.542Z,98155.30
2019-03-08T13:52:46.785Z,98142.91
2019-03-08T13:53:54.999Z,98124.29
2019-03-08T13:55:03.062Z,98152.62
2019-03-08T13:56:11.274Z,98120.77
2019-03-08T13:57:19.589Z,98143.23